![]() |
EMODnet Physics ERDDAP
Easier access to scientific data |
log in|
Brought to you by EMODnet Physics |
| Dataset Title: | NDBC - Collection of dew point temperature (DEWT) TimeSeries - IN SITU MultiPointTimeSeriesObservation
|
| Institution: | NDBC (Dataset ID: TS_DEWT_NDBC) |
| Information: | Summary
| License
| FGDC
| ISO 19115
| Metadata
| Background
| Subset
| Data Access Form
| Make a graph
|
| Name | Last modified | Size | Description | |
|---|---|---|---|---|
| Parent Directory | - | - | ||
| SDIA2_TS_DEWT_012007.nc | 27-Oct-2024 20:17 | 587142 | ||
| SDIA2_TS_DEWT_012008.nc | 27-Oct-2024 20:17 | 433457 | ||
| SDIA2_TS_DEWT_012009.nc | 27-Oct-2024 20:17 | 587055 | ||
| SDIA2_TS_DEWT_012010.nc | 27-Oct-2024 20:17 | 587255 | ||
| SDIA2_TS_DEWT_012011.nc | 27-Oct-2024 20:17 | 587254 | ||
| SDIA2_TS_DEWT_012012.nc | 27-Oct-2024 20:17 | 422455 | ||
| SDIA2_TS_DEWT_012013.nc | 27-Oct-2024 20:17 | 587215 | ||
| SDIA2_TS_DEWT_012014.nc | 27-Oct-2024 20:17 | 428750 | ||
| SDIA2_TS_DEWT_012015.nc | 27-Oct-2024 20:17 | 428629 | ||
| SDIA2_TS_DEWT_012018.nc | 27-Oct-2024 20:17 | 428767 | ||
| SDIA2_TS_DEWT_012019.nc | 27-Oct-2024 20:17 | 435993 | ||
| SDIA2_TS_DEWT_012020.nc | 27-Oct-2024 20:18 | 438884 | ||
| SDIA2_TS_DEWT_012021.nc | 27-Oct-2024 20:18 | 438225 | ||
| SDIA2_TS_DEWT_012023.nc | 27-Oct-2024 20:18 | 438984 | ||
| SDIA2_TS_DEWT_012024.nc | 27-Oct-2024 20:18 | 438602 | ||
| SDIA2_TS_DEWT_012025.nc | 07-Feb-2025 15:39 | 438608 | ||
| SDIA2_TS_DEWT_012026.nc | 02-Feb-2026 15:28 | 438719 | ||
| SDIA2_TS_DEWT_022007.nc | 27-Oct-2024 20:18 | 439019 | ||
| SDIA2_TS_DEWT_022008.nc | 27-Oct-2024 20:18 | 438655 | ||
| SDIA2_TS_DEWT_022009.nc | 27-Oct-2024 20:18 | 438813 | ||
| SDIA2_TS_DEWT_022010.nc | 27-Oct-2024 20:18 | 439539 | ||
| SDIA2_TS_DEWT_022011.nc | 27-Oct-2024 20:18 | 438840 | ||
| SDIA2_TS_DEWT_022012.nc | 27-Oct-2024 20:18 | 438860 | ||
| SDIA2_TS_DEWT_022013.nc | 27-Oct-2024 20:18 | 438890 | ||
| SDIA2_TS_DEWT_022014.nc | 27-Oct-2024 20:18 | 429540 | ||
| SDIA2_TS_DEWT_022015.nc | 27-Oct-2024 20:18 | 429864 | ||
| SDIA2_TS_DEWT_022017.nc | 27-Oct-2024 20:18 | 429821 | ||
| SDIA2_TS_DEWT_022018.nc | 27-Oct-2024 20:18 | 440142 | ||
| SDIA2_TS_DEWT_022019.nc | 27-Oct-2024 20:19 | 587195 | ||
| SDIA2_TS_DEWT_022020.nc | 27-Oct-2024 20:19 | 586952 | ||
| SDIA2_TS_DEWT_022021.nc | 27-Oct-2024 20:19 | 440365 | ||
| SDIA2_TS_DEWT_022022.nc | 27-Oct-2024 20:19 | 440075 | ||
| SDIA2_TS_DEWT_022023.nc | 27-Oct-2024 20:19 | 440270 | ||
| SDIA2_TS_DEWT_022024.nc | 16-Sep-2024 16:51 | 440000 | ||
| SDIA2_TS_DEWT_022025.nc | 03-Mar-2025 04:25 | 587215 | ||
| SDIA2_TS_DEWT_022026.nc | 13-Feb-2026 11:57 | 439827 | ||
| SDIA2_TS_DEWT_032007.nc | 27-Oct-2024 20:19 | 587014 | ||
| SDIA2_TS_DEWT_032008.nc | 27-Oct-2024 20:19 | 586842 | ||
| SDIA2_TS_DEWT_032009.nc | 27-Oct-2024 20:19 | 587254 | ||
| SDIA2_TS_DEWT_032010.nc | 27-Oct-2024 20:19 | 435108 | ||
| SDIA2_TS_DEWT_032011.nc | 27-Oct-2024 20:19 | 587273 | ||
| SDIA2_TS_DEWT_032012.nc | 27-Oct-2024 20:19 | 587329 | ||
| SDIA2_TS_DEWT_032013.nc | 27-Oct-2024 20:19 | 429306 | ||
| SDIA2_TS_DEWT_032014.nc | 27-Oct-2024 20:19 | 429395 | ||
| SDIA2_TS_DEWT_032015.nc | 27-Oct-2024 20:19 | 429352 | ||
| SDIA2_TS_DEWT_032017.nc | 27-Oct-2024 20:20 | 439450 | ||
| SDIA2_TS_DEWT_032018.nc | 27-Oct-2024 20:20 | 431802 | ||
| SDIA2_TS_DEWT_032019.nc | 27-Oct-2024 20:20 | 440115 | ||
| SDIA2_TS_DEWT_032020.nc | 27-Oct-2024 20:20 | 439465 | ||
| SDIA2_TS_DEWT_032021.nc | 27-Oct-2024 20:20 | 439669 | ||
| SDIA2_TS_DEWT_032022.nc | 27-Oct-2024 20:20 | 439957 | ||
| SDIA2_TS_DEWT_032023.nc | 27-Oct-2024 20:20 | 439298 | ||
| SDIA2_TS_DEWT_032025.nc | 02-Apr-2025 08:50 | 439857 | ||
| SDIA2_TS_DEWT_042007.nc | 27-Oct-2024 20:20 | 439851 | ||
| SDIA2_TS_DEWT_042008.nc | 27-Oct-2024 20:20 | 439488 | ||
| SDIA2_TS_DEWT_042009.nc | 27-Oct-2024 20:20 | 439900 | ||
| SDIA2_TS_DEWT_042010.nc | 27-Oct-2024 20:20 | 440211 | ||
| SDIA2_TS_DEWT_042011.nc | 27-Oct-2024 20:20 | 440209 | ||
| SDIA2_TS_DEWT_042012.nc | 27-Oct-2024 20:20 | 440241 | ||
| SDIA2_TS_DEWT_042013.nc | 27-Oct-2024 20:20 | 440201 | ||
| SDIA2_TS_DEWT_042014.nc | 27-Oct-2024 20:20 | 428869 | ||
| SDIA2_TS_DEWT_042015.nc | 27-Oct-2024 20:20 | 429914 | ||
| SDIA2_TS_DEWT_042017.nc | 27-Oct-2024 20:20 | 426513 | ||
| SDIA2_TS_DEWT_042018.nc | 27-Oct-2024 20:20 | 586914 | ||
| SDIA2_TS_DEWT_042019.nc | 27-Oct-2024 20:20 | 425765 | ||
| SDIA2_TS_DEWT_042020.nc | 27-Oct-2024 20:21 | 440451 | ||
| SDIA2_TS_DEWT_042021.nc | 27-Oct-2024 20:21 | 440285 | ||
| SDIA2_TS_DEWT_042022.nc | 27-Oct-2024 20:21 | 439385 | ||
| SDIA2_TS_DEWT_042023.nc | 27-Oct-2024 20:21 | 587100 | ||
| SDIA2_TS_DEWT_042025.nc | 01-May-2025 07:53 | 587001 | ||
| SDIA2_TS_DEWT_052007.nc | 27-Oct-2024 20:21 | 439150 | ||
| SDIA2_TS_DEWT_052008.nc | 27-Oct-2024 20:21 | 440191 | ||
| SDIA2_TS_DEWT_052009.nc | 27-Oct-2024 20:21 | 440107 | ||
| SDIA2_TS_DEWT_052010.nc | 27-Oct-2024 20:21 | 438310 | ||
| SDIA2_TS_DEWT_052011.nc | 27-Oct-2024 20:21 | 587232 | ||
| SDIA2_TS_DEWT_052012.nc | 27-Oct-2024 20:21 | 587291 | ||
| SDIA2_TS_DEWT_052013.nc | 27-Oct-2024 20:21 | 587289 | ||
| SDIA2_TS_DEWT_052014.nc | 27-Oct-2024 20:21 | 587301 | ||
| SDIA2_TS_DEWT_052018.nc | 27-Oct-2024 20:21 | 429520 | ||
| SDIA2_TS_DEWT_052019.nc | 27-Oct-2024 20:22 | 429521 | ||
| SDIA2_TS_DEWT_052020.nc | 27-Oct-2024 20:22 | 419187 | ||
| SDIA2_TS_DEWT_052021.nc | 27-Oct-2024 20:22 | 439549 | ||
| SDIA2_TS_DEWT_052022.nc | 27-Oct-2024 20:22 | 439608 | ||
| SDIA2_TS_DEWT_052023.nc | 27-Oct-2024 20:22 | 438546 | ||
| SDIA2_TS_DEWT_052025.nc | 03-Jun-2025 06:36 | 439908 | ||
| SDIA2_TS_DEWT_062007.nc | 27-Oct-2024 20:22 | 439745 | ||
| SDIA2_TS_DEWT_062008.nc | 27-Oct-2024 20:22 | 439734 | ||
| SDIA2_TS_DEWT_062009.nc | 27-Oct-2024 20:22 | 440074 | ||
| SDIA2_TS_DEWT_062010.nc | 27-Oct-2024 20:22 | 439176 | ||
| SDIA2_TS_DEWT_062011.nc | 27-Oct-2024 20:22 | 439659 | ||
| SDIA2_TS_DEWT_062012.nc | 27-Oct-2024 20:22 | 439892 | ||
| SDIA2_TS_DEWT_062013.nc | 27-Oct-2024 20:22 | 439985 | ||
| SDIA2_TS_DEWT_062014.nc | 27-Oct-2024 20:22 | 440163 | ||
| SDIA2_TS_DEWT_062017.nc | 27-Oct-2024 20:22 | 440195 | ||
| SDIA2_TS_DEWT_062018.nc | 27-Oct-2024 20:23 | 440141 | ||
| SDIA2_TS_DEWT_062019.nc | 27-Oct-2024 20:23 | 440233 | ||
| SDIA2_TS_DEWT_062020.nc | 27-Oct-2024 20:23 | 429915 | ||
| SDIA2_TS_DEWT_062021.nc | 27-Oct-2024 20:23 | 427919 | ||
| SDIA2_TS_DEWT_062022.nc | 27-Oct-2024 20:23 | 429745 | ||
| SDIA2_TS_DEWT_062025.nc | 01-Jul-2025 06:48 | 587130 | ||
| SDIA2_TS_DEWT_072007.nc | 27-Oct-2024 20:23 | 440415 | ||
| SDIA2_TS_DEWT_072008.nc | 27-Oct-2024 20:23 | 587151 | ||
| SDIA2_TS_DEWT_072009.nc | 27-Oct-2024 20:23 | 440375 | ||
| SDIA2_TS_DEWT_072010.nc | 27-Oct-2024 20:23 | 587015 | ||
| SDIA2_TS_DEWT_072011.nc | 27-Oct-2024 20:23 | 587128 | ||
| SDIA2_TS_DEWT_072012.nc | 27-Oct-2024 20:24 | 439779 | ||
| SDIA2_TS_DEWT_072013.nc | 27-Oct-2024 20:24 | 586912 | ||
| SDIA2_TS_DEWT_072014.nc | 27-Oct-2024 20:24 | 587156 | ||
| SDIA2_TS_DEWT_072017.nc | 27-Oct-2024 20:24 | 587164 | ||
| SDIA2_TS_DEWT_072018.nc | 27-Oct-2024 20:24 | 587287 | ||
| SDIA2_TS_DEWT_072019.nc | 27-Oct-2024 20:24 | 587260 | ||
| SDIA2_TS_DEWT_072021.nc | 27-Oct-2024 20:24 | 587296 | ||
| SDIA2_TS_DEWT_072022.nc | 27-Oct-2024 20:24 | 428691 | ||
| SDIA2_TS_DEWT_072023.nc | 27-Oct-2024 20:24 | 428071 | ||
| SDIA2_TS_DEWT_072025.nc | 16-Aug-2025 08:24 | 428078 | ||
| SDIA2_TS_DEWT_082007.nc | 27-Oct-2024 20:24 | 438856 | ||
| SDIA2_TS_DEWT_082008.nc | 27-Oct-2024 20:24 | 440090 | ||
| SDIA2_TS_DEWT_082009.nc | 27-Oct-2024 20:24 | 440428 | ||
| SDIA2_TS_DEWT_082010.nc | 27-Oct-2024 20:24 | 439748 | ||
| SDIA2_TS_DEWT_082011.nc | 27-Oct-2024 20:24 | 440227 | ||
| SDIA2_TS_DEWT_082012.nc | 27-Oct-2024 20:24 | 587105 | ||
| SDIA2_TS_DEWT_082013.nc | 27-Oct-2024 20:24 | 586864 | ||
| SDIA2_TS_DEWT_082014.nc | 27-Oct-2024 20:24 | 439703 | ||
| SDIA2_TS_DEWT_082017.nc | 27-Oct-2024 20:25 | 438878 | ||
| SDIA2_TS_DEWT_082018.nc | 27-Oct-2024 20:25 | 437712 | ||
| SDIA2_TS_DEWT_082019.nc | 27-Oct-2024 20:25 | 587057 | ||
| SDIA2_TS_DEWT_082020.nc | 27-Oct-2024 20:25 | 587245 | ||
| SDIA2_TS_DEWT_082021.nc | 27-Oct-2024 20:25 | 587263 | ||
| SDIA2_TS_DEWT_082022.nc | 27-Oct-2024 20:25 | 587303 | ||
| SDIA2_TS_DEWT_082023.nc | 27-Oct-2024 20:25 | 587288 | ||
| SDIA2_TS_DEWT_082025.nc | 01-Sep-2025 08:21 | 426566 | ||
| SDIA2_TS_DEWT_092007.nc | 27-Oct-2024 20:25 | 426185 | ||
| SDIA2_TS_DEWT_092008.nc | 27-Oct-2024 20:25 | 428846 | ||
| SDIA2_TS_DEWT_092009.nc | 27-Oct-2024 20:25 | 427507 | ||
| SDIA2_TS_DEWT_092010.nc | 27-Oct-2024 20:25 | 438804 | ||
| SDIA2_TS_DEWT_092011.nc | 27-Oct-2024 20:25 | 440036 | ||
| SDIA2_TS_DEWT_092012.nc | 27-Oct-2024 20:25 | 439819 | ||
| SDIA2_TS_DEWT_092013.nc | 27-Oct-2024 20:26 | 439188 | ||
| SDIA2_TS_DEWT_092014.nc | 27-Oct-2024 20:26 | 439597 | ||
| SDIA2_TS_DEWT_092017.nc | 27-Oct-2024 20:26 | 439923 | ||
| SDIA2_TS_DEWT_092018.nc | 27-Oct-2024 20:26 | 422121 | ||
| SDIA2_TS_DEWT_092019.nc | 27-Oct-2024 20:26 | 437680 | ||
| SDIA2_TS_DEWT_092020.nc | 27-Oct-2024 20:26 | 439570 | ||
| SDIA2_TS_DEWT_092021.nc | 27-Oct-2024 20:26 | 440203 | ||
| SDIA2_TS_DEWT_092022.nc | 27-Oct-2024 20:26 | 440152 | ||
| SDIA2_TS_DEWT_092023.nc | 27-Oct-2024 20:26 | 440213 | ||
| SDIA2_TS_DEWT_092025.nc | 01-Oct-2025 08:46 | 440221 | ||
| SDIA2_TS_DEWT_102006.nc | 27-Oct-2024 20:26 | 440234 | ||
| SDIA2_TS_DEWT_102007.nc | 27-Oct-2024 20:26 | 440316 | ||
| SDIA2_TS_DEWT_102008.nc | 27-Oct-2024 20:26 | 429432 | ||
| SDIA2_TS_DEWT_102009.nc | 27-Oct-2024 20:26 | 429129 | ||
| SDIA2_TS_DEWT_102010.nc | 27-Oct-2024 20:26 | 429911 | ||
| SDIA2_TS_DEWT_102011.nc | 27-Oct-2024 20:26 | 429896 | ||
| SDIA2_TS_DEWT_102012.nc | 27-Oct-2024 20:26 | 587257 | ||
| SDIA2_TS_DEWT_102013.nc | 27-Oct-2024 20:26 | 586978 | ||
| SDIA2_TS_DEWT_102014.nc | 27-Oct-2024 20:27 | 587328 | ||
| SDIA2_TS_DEWT_102015.nc | 27-Oct-2024 20:27 | 439842 | ||
| SDIA2_TS_DEWT_102017.nc | 27-Oct-2024 20:27 | 440392 | ||
| SDIA2_TS_DEWT_102018.nc | 27-Oct-2024 20:27 | 587147 | ||
| SDIA2_TS_DEWT_102019.nc | 27-Oct-2024 20:27 | 435407 | ||
| SDIA2_TS_DEWT_102020.nc | 27-Oct-2024 20:27 | 437860 | ||
| SDIA2_TS_DEWT_102021.nc | 27-Oct-2024 20:27 | 440167 | ||
| SDIA2_TS_DEWT_102022.nc | 27-Oct-2024 20:27 | 587254 | ||
| SDIA2_TS_DEWT_102023.nc | 27-Oct-2024 20:27 | 587075 | ||
| SDIA2_TS_DEWT_102025.nc | 01-Nov-2025 08:19 | 587245 | ||
| SDIA2_TS_DEWT_112006.nc | 27-Oct-2024 20:27 | 587281 | ||
| SDIA2_TS_DEWT_112007.nc | 27-Oct-2024 20:27 | 587305 | ||
| SDIA2_TS_DEWT_112008.nc | 27-Oct-2024 20:27 | 587407 | ||
| SDIA2_TS_DEWT_112009.nc | 27-Oct-2024 20:27 | 429391 | ||
| SDIA2_TS_DEWT_112010.nc | 27-Oct-2024 20:27 | 423323 | ||
| SDIA2_TS_DEWT_112011.nc | 27-Oct-2024 20:28 | 429535 | ||
| SDIA2_TS_DEWT_112012.nc | 27-Oct-2024 20:28 | 429550 | ||
| SDIA2_TS_DEWT_112013.nc | 27-Oct-2024 20:28 | 431703 | ||
| SDIA2_TS_DEWT_112014.nc | 27-Oct-2024 20:28 | 439279 | ||
| SDIA2_TS_DEWT_112017.nc | 27-Oct-2024 20:28 | 439280 | ||
| SDIA2_TS_DEWT_112018.nc | 27-Oct-2024 20:28 | 439269 | ||
| SDIA2_TS_DEWT_112019.nc | 27-Oct-2024 20:28 | 440021 | ||
| SDIA2_TS_DEWT_112020.nc | 27-Oct-2024 20:28 | 437578 | ||
| SDIA2_TS_DEWT_112021.nc | 27-Oct-2024 20:28 | 440001 | ||
| SDIA2_TS_DEWT_112022.nc | 27-Oct-2024 20:28 | 439733 | ||
| SDIA2_TS_DEWT_112023.nc | 27-Oct-2024 20:28 | 440010 | ||
| SDIA2_TS_DEWT_112024.nc | 17-Jan-2025 19:24 | 440081 | ||
| SDIA2_TS_DEWT_112025.nc | 01-Dec-2025 12:12 | 440216 | ||
| SDIA2_TS_DEWT_122006.nc | 27-Oct-2024 20:28 | 439211 | ||
| SDIA2_TS_DEWT_122007.nc | 27-Oct-2024 20:28 | 440232 | ||
| SDIA2_TS_DEWT_122008.nc | 27-Oct-2024 20:28 | 440233 | ||
| SDIA2_TS_DEWT_122009.nc | 27-Oct-2024 20:28 | 440243 | ||
| SDIA2_TS_DEWT_122010.nc | 27-Oct-2024 20:28 | 429535 | ||
| SDIA2_TS_DEWT_122011.nc | 27-Oct-2024 20:29 | 429775 | ||
| SDIA2_TS_DEWT_122012.nc | 27-Oct-2024 20:29 | 426596 | ||
| SDIA2_TS_DEWT_122014.nc | 27-Oct-2024 20:29 | 433998 | ||
| SDIA2_TS_DEWT_122017.nc | 27-Oct-2024 20:29 | 440452 | ||
| SDIA2_TS_DEWT_122018.nc | 27-Oct-2024 20:29 | 438750 | ||
| SDIA2_TS_DEWT_122019.nc | 27-Oct-2024 20:29 | 440156 | ||
| SDIA2_TS_DEWT_122020.nc | 27-Oct-2024 20:29 | 587152 | ||
| SDIA2_TS_DEWT_122021.nc | 27-Oct-2024 20:29 | 440168 | ||
| SDIA2_TS_DEWT_122022.nc | 27-Oct-2024 20:29 | 587255 | ||
| SDIA2_TS_DEWT_122023.nc | 27-Oct-2024 20:29 | 436110 | ||
| SDIA2_TS_DEWT_122024.nc | 22-Jan-2025 19:34 | 587187 | ||
| SDIA2_TS_DEWT_122025.nc | 01-Jan-2026 11:08 | 439994 | ||